Time;durP1;ratioP1;P1;durP2;ratioP2;P2;SDS_P1;SDS_P2;PMS_P1;PMS_P2;Temp;Humidity;BMP_temperature;BMP_pressure;BME280_temperature;BME280_humidity;BME280_pressure;Samples;Min_cycle;Max_cycle;Signal;HPM_P1;HPM_P2
2021/05/19 00:01:13;;;;;;;;;;;;;;;22.43;43.97;100169.41;5034250;28;798;-48
2021/05/19 00:03:38;;;;;;;;;;;;;;;22.53;43.76;100177.41;5036327;28;783;-49
2021/05/19 00:06:04;;;;;;;;;;;;;;;22.34;43.95;100172.22;5036160;28;835;-51
2021/05/19 00:08:29;;;;;;;;;;;;;;;21.38;46.24;100175.66;5035448;28;793;-56
2021/05/19 00:10:55;;;;;;;;;;;;;;;20.92;47.57;100180.50;5036134;28;756;-52
2021/05/19 00:13:20;;;;;;;;;;;;;;;21.35;46.39;100182.63;5035904;28;959;-53
2021/05/19 00:15:46;;;;;;;;;;;;;;;21.62;45.89;100185.50;5036266;28;775;-50
2021/05/19 00:18:11;;;;;;;;;;;;;;;21.78;45.49;100183.88;5036523;28;1914;-53
2021/05/19 00:20:36;;;;;;;;;;;;;;;21.86;45.19;100196.13;5036517;28;815;-50
2021/05/19 00:23:02;;;;;;;;;;;;;;;22.03;44.71;100189.78;5036279;28;736;-53
2021/05/19 00:25:27;;;;;;;;;;;;;;;22.02;45.09;100188.97;5035198;28;796;-51
2021/05/19 00:27:54;;;;;;;;;;;;;;;22.10;44.85;100197.59;5035469;28;1034;-49
2021/05/19 00:30:21;;;;;;;;;;;;;;;22.16;44.43;100196.28;5036158;28;807;-50
2021/05/19 00:32:46;;;;;;;;;;;;;;;22.04;44.87;100205.25;5034906;28;821;-52
2021/05/19 00:35:12;;;;;;;;;;;;;;;22.21;44.50;100196.13;5035955;28;846;-50
2021/05/19 00:37:38;;;;;;;;;;;;;;;22.18;44.71;100196.81;5038792;28;748;-52
2021/05/19 00:40:03;;;;;;;;;;;;;;;22.17;44.51;100201.50;5057403;28;1986;-53
2021/05/19 00:42:29;;;;;;;;;;;;;;;22.25;44.26;100201.84;5059533;28;962;-50
2021/05/19 00:44:54;;;;;;;;;;;;;;;22.27;44.41;100205.09;5041634;28;1127;-53
2021/05/19 00:47:30;;;;;;;;;;;;;;;22.39;43.93;100214.41;5060010;28;780;-52
2021/05/19 00:49:56;;;;;;;;;;;;;;;22.41;44.21;100221.59;5041492;28;1198;-51
2021/05/19 00:52:22;;;;;;;;;;;;;;;22.41;43.98;100227.13;5041912;28;1419;-55
2021/05/19 00:54:48;;;;;;;;;;;;;;;22.46;43.98;100233.31;5041862;28;1261;-47
2021/05/19 00:57:13;;;;;;;;;;;;;;;22.36;44.25;100228.13;5041169;28;1150;-48
2021/05/19 00:59:39;;;;;;;;;;;;;;;22.49;43.92;100216.03;5041956;28;1906;-48
2021/05/19 01:02:05;;;;;;;;;;;;;;;22.43;44.07;100216.50;5041793;28;1368;-50
2021/05/19 01:04:31;;;;;;;;;;;;;;;22.44;44.15;100216.22;5059163;28;760;-50
2021/05/19 01:07:30;;;;;;;;;;;;;;;22.59;43.88;100217.66;5042037;28;1087;-49
2021/05/19 01:09:53;;;;;;;;;;;;;;;22.49;44.02;100216.03;5040812;28;1121;-48
2021/05/19 01:12:19;;;;;;;;;;;;;;;22.53;43.85;100224.50;5058777;28;1068;-49
2021/05/19 01:14:45;;;;;;;;;;;;;;;22.72;43.65;100233.28;5057900;28;808;-50
2021/05/19 01:17:10;;;;;;;;;;;;;;;22.15;44.88;100225.94;5059328;28;856;-53
2021/05/19 01:19:40;;;;;;;;;;;;;;;21.67;46.09;100243.44;5058841;28;1909;-48
2021/05/19 01:22:08;;;;;;;;;;;;;;;21.49;46.24;100239.78;5059286;28;807;-49
2021/05/19 01:24:33;;;;;;;;;;;;;;;21.39;46.82;100238.09;5059047;28;724;-50
2021/05/19 01:26:59;;;;;;;;;;;;;;;21.91;45.72;100234.72;5039468;28;1026;-47
2021/05/19 01:29:24;;;;;;;;;;;;;;;22.04;45.19;100235.72;5059122;28;764;-48
2021/05/19 01:31:50;;;;;;;;;;;;;;;21.99;45.04;100228.41;5058814;28;780;-52
2021/05/19 01:34:15;;;;;;;;;;;;;;;21.88;45.28;100236.19;5058822;28;856;-52
2021/05/19 01:36:41;;;;;;;;;;;;;;;21.73;45.91;100235.81;5059118;28;804;-49
2021/05/19 01:39:07;;;;;;;;;;;;;;;21.79;45.60;100238.09;5037600;28;1983;-48
2021/05/19 01:41:32;;;;;;;;;;;;;;;21.78;45.91;100230.13;5038267;28;998;-48
2021/05/19 01:43:58;;;;;;;;;;;;;;;21.90;45.30;100235.84;5037905;28;1237;-47
2021/05/19 01:46:49;;;;;;;;;;;;;;;22.14;44.81;100252.00;5038891;28;776;-47
2021/05/19 01:49:15;;;;;;;;;;;;;;;22.16;44.97;100240.59;5038189;28;815;-47
2021/05/19 01:51:40;;;;;;;;;;;;;;;22.07;45.00;100248.09;5054346;28;787;-49
2021/05/19 01:54:07;;;;;;;;;;;;;;;21.96;45.14;100258.66;5038669;28;755;-47
2021/05/19 01:56:38;;;;;;;;;;;;;;;21.99;45.45;100249.72;5037932;28;947;-48
2021/05/19 01:59:05;;;;;;;;;;;;;;;22.10;44.76;100250.22;5037635;28;1922;-48
2021/05/19 02:01:31;;;;;;;;;;;;;;;22.05;45.08;100254.78;5037481;28;1131;-47
2021/05/19 02:04:07;;;;;;;;;;;;;;;22.16;44.80;100244.19;5037315;28;807;-48
2021/05/19 02:06:48;;;;;;;;;;;;;;;22.10;44.92;100251.03;5037491;28;1252;-49
2021/05/19 02:09:17;;;;;;;;;;;;;;;22.14;44.86;100263.09;5037638;28;1138;-53
2021/05/19 02:11:43;;;;;;;;;;;;;;;22.30;44.40;100251.53;5036567;28;1143;-48
2021/05/19 02:14:09;;;;;;;;;;;;;;;22.13;44.88;100252.34;5038176;28;811;-51
2021/05/19 02:16:34;;;;;;;;;;;;;;;22.10;44.90;100253.78;5038318;28;719;-47
2021/05/19 02:19:00;;;;;;;;;;;;;;;22.16;44.80;100258.06;5038176;28;1977;-50
2021/05/19 02:21:26;;;;;;;;;;;;;;;21.98;45.15;100259.13;5053758;28;963;-51
2021/05/19 02:24:06;;;;;;;;;;;;;;;22.10;44.98;100256.56;5022611;28;1227;-48
2021/05/19 02:26:31;;;;;;;;;;;;;;;22.18;44.99;100250.22;5036633;28;1221;-48
2021/05/19 02:28:57;;;;;;;;;;;;;;;22.11;45.20;100258.19;5037023;28;1198;-50
2021/05/19 02:31:25;;;;;;;;;;;;;;;22.17;44.93;100251.34;5037094;28;1197;-52
2021/05/19 02:33:52;;;;;;;;;;;;;;;22.27;44.79;100257.72;5036192;28;1094;-51
2021/05/19 02:36:17;;;;;;;;;;;;;;;22.22;44.71;100259.50;5038319;28;791;-57
2021/05/19 02:38:43;;;;;;;;;;;;;;;22.28;44.83;100268.47;5044440;28;1981;-50
2021/05/19 02:41:08;;;;;;;;;;;;;;;22.28;44.69;100273.22;5038786;28;974;-49
2021/05/19 02:43:34;;;;;;;;;;;;;;;22.37;44.44;100265.72;5057470;28;1010;-48
2021/05/19 02:46:00;;;;;;;;;;;;;;;22.43;44.29;100269.97;5056827;28;756;-48
2021/05/19 02:48:25;;;;;;;;;;;;;;;22.19;44.70;100276.78;5057449;28;752;-51
2021/05/19 02:50:51;;;;;;;;;;;;;;;22.33;44.52;100286.88;5057565;28;764;-53
2021/05/19 02:53:16;;;;;;;;;;;;;;;22.27;44.55;100277.09;5056470;28;768;-49
2021/05/19 02:55:42;;;;;;;;;;;;;;;22.31;44.73;100270.59;5057031;28;764;-51
2021/05/19 02:58:07;;;;;;;;;;;;;;;22.30;44.66;100279.22;5057188;28;1006;-52
2021/05/19 03:00:33;;;;;;;;;;;;;;;22.21;44.90;100282.78;5056635;28;1974;-50
2021/05/19 03:02:58;;;;;;;;;;;;;;;22.33;44.65;100282.19;5057309;28;800;-51
2021/05/19 03:05:24;;;;;;;;;;;;;;;22.38;44.67;100281.22;5057354;28;744;-49
2021/05/19 03:07:49;;;;;;;;;;;;;;;22.41;44.37;100286.09;5057234;28;760;-53
2021/05/19 03:10:15;;;;;;;;;;;;;;;22.30;44.56;100282.81;5056759;28;795;-51
2021/05/19 03:12:40;;;;;;;;;;;;;;;22.42;44.55;100284.97;5056849;28;994;-58
2021/05/19 03:15:06;;;;;;;;;;;;;;;22.39;44.49;100282.84;5057073;28;764;-58
2021/05/19 03:17:32;;;;;;;;;;;;;;;22.47;44.39;100290.34;5038833;28;1115;-58
2021/05/19 03:19:57;;;;;;;;;;;;;;;22.45;44.45;100287.09;5055677;28;1917;-51
2021/05/19 03:22:23;;;;;;;;;;;;;;;22.43;44.59;100297.69;5057281;28;777;-57
2021/05/19 03:24:48;;;;;;;;;;;;;;;22.41;44.50;100299.94;5056634;28;823;-58
2021/05/19 03:27:14;;;;;;;;;;;;;;;21.72;46.15;100306.94;5056273;28;942;-59
2021/05/19 03:29:39;;;;;;;;;;;;;;;21.31;47.13;100316.34;5056772;28;752;-60
2021/05/19 03:32:05;;;;;;;;;;;;;;;21.20;47.64;100321.31;5056670;28;748;-59
2021/05/19 03:34:30;;;;;;;;;;;;;;;21.58;46.69;100320.09;5056898;28;839;-59
2021/05/19 03:36:57;;;;;;;;;;;;;;;21.97;45.70;100310.13;5056946;28;761;-59
2021/05/19 03:39:22;;;;;;;;;;;;;;;22.15;45.01;100319.28;5056235;28;1914;-58
2021/05/19 03:41:48;;;;;;;;;;;;;;;22.29;44.93;100321.94;5056555;28;943;-59
2021/05/19 03:44:13;;;;;;;;;;;;;;;22.30;44.69;100312.47;5056478;28;804;-57
2021/05/19 03:46:39;;;;;;;;;;;;;;;22.50;44.32;100314.63;5056412;28;743;-56
2021/05/19 03:49:04;;;;;;;;;;;;;;;22.25;44.63;100326.47;5037915;28;953;-56
2021/05/19 03:51:30;;;;;;;;;;;;;;;21.74;46.04;100323.22;5056500;28;811;-57
2021/05/19 03:53:56;;;;;;;;;;;;;;;21.46;46.33;100331.69;5056323;28;740;-56
2021/05/19 03:56:21;;;;;;;;;;;;;;;21.55;46.38;100329.84;5037357;28;1197;-55
2021/05/19 03:58:47;;;;;;;;;;;;;;;21.95;45.46;100331.75;5028532;28;1914;-57
2021/05/19 04:01:12;;;;;;;;;;;;;;;22.19;44.79;100336.91;5024748;28;1298;-57
2021/05/19 04:03:38;;;;;;;;;;;;;;;22.27;44.62;100338.03;5016981;28;761;-58
2021/05/19 04:06:03;;;;;;;;;;;;;;;22.27;44.50;100340.81;5016698;28;820;-58
2021/05/19 04:08:35;;;;;;;;;;;;;;;22.13;44.78;100330.69;5016619;28;776;-58
2021/05/19 04:11:01;;;;;;;;;;;;;;;22.05;45.18;100332.28;5016487;28;511;-59
2021/05/19 04:13:26;;;;;;;;;;;;;;;21.81;45.54;100338.25;5055239;28;1019;-59
2021/05/19 04:15:52;;;;;;;;;;;;;;;21.74;45.78;100343.44;5056020;28;872;-58
2021/05/19 04:18:17;;;;;;;;;;;;;;;21.68;45.92;100339.16;5056312;28;807;-58
2021/05/19 04:20:43;;;;;;;;;;;;;;;21.83;45.46;100347.03;5056118;28;1972;-59
2021/05/19 04:23:08;;;;;;;;;;;;;;;21.90;45.30;100338.28;5056346;28;740;-59
2021/05/19 04:25:35;;;;;;;;;;;;;;;22.01;45.05;100338.81;5055938;28;753;-59
2021/05/19 04:28:01;;;;;;;;;;;;;;;21.99;44.86;100347.44;5055458;28;966;-58
2021/05/19 04:30:26;;;;;;;;;;;;;;;22.00;44.83;100342.69;5056486;28;811;-59
2021/05/19 04:32:53;;;;;;;;;;;;;;;22.11;44.57;100344.03;5037330;28;822;-59
2021/05/19 04:35:18;;;;;;;;;;;;;;;22.19;44.49;100347.97;5056245;28;788;-58
2021/05/19 04:37:44;;;;;;;;;;;;;;;22.17;44.33;100344.69;5056243;28;744;-59
2021/05/19 04:40:09;;;;;;;;;;;;;;;22.02;44.64;100349.56;5055350;28;1993;-59
2021/05/19 04:42:35;;;;;;;;;;;;;;;22.15;44.45;100358.88;5054267;28;970;-59
2021/05/19 04:45:00;;;;;;;;;;;;;;;22.07;44.80;100365.19;5056076;28;819;-58
2021/05/19 04:47:26;;;;;;;;;;;;;;;22.01;44.98;100369.25;5036842;28;832;-59
2021/05/19 04:49:51;;;;;;;;;;;;;;;22.10;44.54;100364.53;5037609;28;918;-59
2021/05/19 04:52:17;;;;;;;;;;;;;;;22.12;44.79;100359.50;5055848;28;771;-58
2021/05/19 04:54:42;;;;;;;;;;;;;;;22.07;44.84;100376.28;5037330;28;884;-58
2021/05/19 04:57:08;;;;;;;;;;;;;;;22.13;44.71;100371.41;5055350;28;1005;-59
2021/05/19 04:59:33;;;;;;;;;;;;;;;22.27;44.21;100377.63;5037584;28;1989;-59
2021/05/19 05:01:59;;;;;;;;;;;;;;;22.21;44.45;100374.19;5037894;28;1110;-59
2021/05/19 05:04:24;;;;;;;;;;;;;;;22.26;44.16;100369.63;5054228;28;911;-59
2021/05/19 05:06:49;;;;;;;;;;;;;;;22.20;44.53;100369.81;5038115;28;773;-58
2021/05/19 05:09:15;;;;;;;;;;;;;;;22.26;44.31;100364.09;5055563;28;855;-58
2021/05/19 05:11:40;;;;;;;;;;;;;;;22.30;44.35;100360.38;5055393;28;946;-59
2021/05/19 05:14:06;;;;;;;;;;;;;;;22.31;44.26;100362.00;5055662;28;820;-58
2021/05/19 05:16:31;;;;;;;;;;;;;;;22.42;43.83;100368.06;5055630;28;764;-60
2021/05/19 05:18:57;;;;;;;;;;;;;;;22.50;43.65;100370.03;5055769;28;1973;-57
2021/05/19 05:21:22;;;;;;;;;;;;;;;22.43;43.86;100364.16;5055549;28;815;-55
2021/05/19 05:23:47;;;;;;;;;;;;;;;22.39;44.15;100365.97;5058041;28;808;-53
2021/05/19 05:26:14;;;;;;;;;;;;;;;22.54;43.77;100364.69;5059020;28;1014;-53
2021/05/19 05:28:40;;;;;;;;;;;;;;;22.46;43.66;100365.50;5001641;28;773;-55
2021/05/19 05:31:05;;;;;;;;;;;;;;;22.49;43.55;100365.63;5019144;28;804;-58
2021/05/19 05:33:31;;;;;;;;;;;;;;;22.44;43.96;100359.44;5019534;28;856;-58
2021/05/19 05:35:56;;;;;;;;;;;;;;;22.55;43.48;100364.34;5019328;28;819;-54
2021/05/19 05:38:22;;;;;;;;;;;;;;;22.44;43.92;100354.72;5033252;28;1143;-54
2021/05/19 05:40:47;;;;;;;;;;;;;;;22.40;43.88;100362.06;5058693;28;1898;-53
2021/05/19 05:43:12;;;;;;;;;;;;;;;22.52;43.52;100353.91;5058401;28;1014;-54
2021/05/19 05:45:38;;;;;;;;;;;;;;;22.58;43.54;100370.38;5058720;28;803;-57
2021/05/19 05:48:03;;;;;;;;;;;;;;;22.33;43.98;100356.13;5040639;28;863;-55
2021/05/19 05:50:29;;;;;;;;;;;;;;;21.76;45.24;100356.94;5058688;28;819;-54
2021/05/19 05:52:54;;;;;;;;;;;;;;;21.51;45.84;100368.34;5058598;28;795;-56
2021/05/19 05:55:20;;;;;;;;;;;;;;;21.48;46.00;100362.63;5058919;28;748;-56
2021/05/19 05:57:47;;;;;;;;;;;;;;;21.98;44.84;100369.88;5058171;28;951;-55
2021/05/19 06:00:13;;;;;;;;;;;;;;;22.34;43.96;100366.09;5058253;28;1918;-52
2021/05/19 06:02:38;;;;;;;;;;;;;;;22.61;43.22;100367.78;5058785;28;705;-53
2021/05/19 06:05:04;;;;;;;;;;;;;;;22.30;43.98;100376.16;5058630;28;800;-57
2021/05/19 06:07:29;;;;;;;;;;;;;;;22.09;44.53;100371.25;5058299;28;843;-57
2021/05/19 06:09:55;;;;;;;;;;;;;;;21.80;44.80;100377.31;5058135;28;744;-57
2021/05/19 06:12:23;;;;;;;;;;;;;;;21.95;44.80;100376.91;5058138;28;954;-54
2021/05/19 06:14:49;;;;;;;;;;;;;;;22.40;43.50;100370.38;5058134;28;783;-52
2021/05/19 06:17:15;;;;;;;;;;;;;;;22.53;43.23;100369.41;5058491;28;776;-50
2021/05/19 06:19:41;;;;;;;;;;;;;;;22.17;43.98;100372.38;5058234;28;1910;-55
2021/05/19 06:22:07;;;;;;;;;;;;;;;22.16;43.76;100366.03;5056511;28;880;-57
2021/05/19 06:24:32;;;;;;;;;;;;;;;21.76;44.52;100371.59;5058064;28;744;-55
2021/05/19 06:26:57;;;;;;;;;;;;;;;21.97;44.24;100374.59;5057466;28;1033;-54
2021/05/19 06:29:23;;;;;;;;;;;;;;;22.38;43.39;100372.63;5057673;28;862;-50
2021/05/19 06:31:48;;;;;;;;;;;;;;;22.42;43.31;100372.81;5058086;28;747;-57
2021/05/19 06:34:14;;;;;;;;;;;;;;;22.14;43.95;100368.31;5057166;28;815;-56
2021/05/19 06:36:44;;;;;;;;;;;;;;;22.09;43.76;100371.25;5039140;28;916;-55
2021/05/19 06:39:09;;;;;;;;;;;;;;;21.81;44.21;100377.00;5057313;28;1983;-53
2021/05/19 06:41:35;;;;;;;;;;;;;;;21.90;44.49;100374.25;5057201;28;1005;-56
2021/05/19 06:44:00;;;;;;;;;;;;;;;22.43;43.10;100380.78;5057512;28;768;-55
2021/05/19 06:46:26;;;;;;;;;;;;;;;22.62;42.46;100376.91;5057757;28;816;-57
2021/05/19 06:48:51;;;;;;;;;;;;;;;22.26;43.24;100375.16;5057964;28;749;-52
2021/05/19 06:51:17;;;;;;;;;;;;;;;22.07;43.61;100367.97;5057131;28;760;-57
2021/05/19 06:53:42;;;;;;;;;;;;;;;21.69;44.59;100374.00;5057350;28;795;-53
2021/05/19 06:56:08;;;;;;;;;;;;;;;21.84;44.31;100370.81;5039928;28;1189;-55
2021/05/19 06:58:34;;;;;;;;;;;;;;;22.17;43.46;100375.16;5038164;28;1918;-56
2021/05/19 07:00:59;;;;;;;;;;;;;;;22.53;42.55;100379.66;5037091;28;1179;-55
2021/05/19 07:03:25;;;;;;;;;;;;;;;22.51;42.80;100373.63;5035510;28;1226;-55
2021/05/19 07:05:50;;;;;;;;;;;;;;;22.26;43.28;100380.72;5036835;28;1333;-56
2021/05/19 07:08:16;;;;;;;;;;;;;;;21.86;43.80;100385.13;5036584;28;1233;-56
2021/05/19 07:10:41;;;;;;;;;;;;;;;21.59;44.56;100377.03;5019074;28;1242;-52
2021/05/19 07:13:07;;;;;;;;;;;;;;;22.11;43.62;100379.22;5037524;28;1220;-56
2021/05/19 07:15:36;;;;;;;;;;;;;;;22.38;42.77;100380.94;5036489;28;1345;-55
2021/05/19 07:18:05;;;;;;;;;;;;;;;22.57;42.18;100375.13;5036681;28;1202;-54
2021/05/19 07:20:31;;;;;;;;;;;;;;;22.32;42.87;100387.75;5036397;28;1910;-57
2021/05/19 07:22:56;;;;;;;;;;;;;;;22.00;43.62;100389.75;5036386;28;1253;-55
2021/05/19 07:25:21;;;;;;;;;;;;;;;21.70;44.17;100395.81;5037075;28;1360;-50
2021/05/19 07:27:47;;;;;;;;;;;;;;;21.94;43.75;100391.06;5036179;28;961;-55
2021/05/19 07:30:13;;;;;;;;;;;;;;;22.40;42.65;100387.00;5036697;28;851;-53
2021/05/19 07:32:38;;;;;;;;;;;;;;;22.27;43.09;100388.69;5036983;28;772;-58
2021/05/19 07:35:04;;;;;;;;;;;;;;;21.90;43.66;100390.88;5036931;28;811;-53
2021/05/19 07:37:29;;;;;;;;;;;;;;;21.90;43.78;100384.53;5036700;28;871;-53
2021/05/19 07:39:55;;;;;;;;;;;;;;;21.74;44.11;100384.94;5036563;28;1917;-57
2021/05/19 07:42:20;;;;;;;;;;;;;;;22.08;43.42;100379.84;5036280;28;1011;-57
2021/05/19 07:44:46;;;;;;;;;;;;;;;22.40;42.52;100387.00;5036618;28;752;-58
2021/05/19 07:47:12;;;;;;;;;;;;;;;22.17;43.05;100384.28;5036423;28;800;-58
2021/05/19 07:49:37;;;;;;;;;;;;;;;21.65;44.45;100384.88;5035616;28;823;-58
2021/05/19 07:52:03;;;;;;;;;;;;;;;21.18;45.42;100376.94;5035192;28;1191;-58
2021/05/19 07:54:30;;;;;;;;;;;;;;;21.45;44.97;100383.44;5034923;28;894;-58
2021/05/19 07:56:59;;;;;;;;;;;;;;;21.99;43.41;100382.59;5051369;28;938;-59
2021/05/19 07:59:29;;;;;;;;;;;;;;;22.27;42.69;100382.34;5036560;28;1906;-59
2021/05/19 08:04:20;;;;;;;;;;;;;;;22.24;42.96;100388.53;5051971;28;937;-58
2021/05/19 08:06:45;;;;;;;;;;;;;;;21.95;43.70;100389.91;5051372;28;834;-60
2021/05/19 08:09:10;;;;;;;;;;;;;;;21.73;44.05;100374.16;5036195;28;808;-61
2021/05/19 08:11:38;;;;;;;;;;;;;;;21.71;44.14;100393.84;5051805;28;943;-59
2021/05/19 08:14:03;;;;;;;;;;;;;;;22.19;43.22;100384.78;5036507;28;807;-59
2021/05/19 08:16:29;;;;;;;;;;;;;;;22.52;42.47;100389.91;5051660;28;972;-54
2021/05/19 08:18:54;;;;;;;;;;;;;;;22.17;43.06;100395.34;5035262;28;1910;-58
2021/05/19 08:21:20;;;;;;;;;;;;;;;21.93;43.76;100389.41;5036062;28;808;-59
2021/05/19 08:23:46;;;;;;;;;;;;;;;21.86;43.92;100390.66;5036619;28;839;-58
2021/05/19 08:26:11;;;;;;;;;;;;;;;21.81;44.11;100392.75;5036243;28;938;-58
2021/05/19 08:28:37;;;;;;;;;;;;;;;22.26;43.19;100397.31;5035043;28;1286;-59
2021/05/19 08:31:03;;;;;;;;;;;;;;;22.51;42.40;100391.06;5036243;28;867;-59
2021/05/19 08:33:28;;;;;;;;;;;;;;;22.18;42.92;100387.88;5036332;28;855;-59
2021/05/19 08:35:54;;;;;;;;;;;;;;;22.09;43.30;100387.03;5035946;28;886;-59
2021/05/19 08:38:19;;;;;;;;;;;;;;;21.71;44.02;100382.78;5037611;28;1438;-59
2021/05/19 08:40:44;;;;;;;;;;;;;;;21.71;44.10;100382.78;5055917;28;1914;-60
2021/05/19 08:43:12;;;;;;;;;;;;;;;22.14;43.20;100368.31;5055071;28;954;-59
2021/05/19 08:45:37;;;;;;;;;;;;;;;22.50;42.32;100364.50;5056111;28;815;-59
2021/05/19 08:48:03;;;;;;;;;;;;;;;22.17;43.08;100366.84;5056320;28;792;-59
2021/05/19 08:50:29;;;;;;;;;;;;;;;22.13;43.09;100360.31;5055304;28;784;-59
2021/05/19 08:52:58;;;;;;;;;;;;;;;21.76;44.11;100356.94;5056085;28;816;-59
2021/05/19 08:55:24;;;;;;;;;;;;;;;21.69;44.21;100360.16;5056202;28;796;-59
2021/05/19 08:57:49;;;;;;;;;;;;;;;22.21;42.84;100360.34;5056257;28;942;-59
2021/05/19 09:00:15;;;;;;;;;;;;;;;22.47;42.29;100362.38;5058180;28;1992;-59
2021/05/19 09:02:40;;;;;;;;;;;;;;;22.37;42.33;100362.69;5059743;28;752;-59
2021/05/19 09:05:06;;;;;;;;;;;;;;;22.17;42.99;100351.03;5059212;28;804;-59
2021/05/19 09:07:32;;;;;;;;;;;;;;;21.90;43.33;100365.16;5058365;28;930;-59
2021/05/19 09:10:01;;;;;;;;;;;;;;;21.74;44.00;100367.50;5059596;28;848;-59
2021/05/19 09:12:26;;;;;;;;;;;;;;;22.16;42.99;100366.03;5057494;28;1218;-59
2021/05/19 09:14:56;;;;;;;;;;;;;;;22.48;42.10;100361.25;5059640;28;807;-59
2021/05/19 09:17:23;;;;;;;;;;;;;;;21.94;43.31;100368.91;5059251;28;536;-59
2021/05/19 09:19:49;;;;;;;;;;;;;;;21.58;44.15;100356.84;5058866;28;1921;-59
2021/05/19 09:22:18;;;;;;;;;;;;;;;21.29;44.82;100360.88;5059376;28;808;-59
2021/05/19 09:24:44;;;;;;;;;;;;;;;21.69;43.88;100354.63;5059249;28;779;-59
2021/05/19 09:27:09;;;;;;;;;;;;;;;21.94;43.20;100357.84;5057765;28;970;-58
2021/05/19 09:29:37;;;;;;;;;;;;;;;21.99;43.26;100352.97;5058937;28;882;-59
2021/05/19 09:32:04;;;;;;;;;;;;;;;22.13;42.89;100354.78;5040394;28;931;-58
2021/05/19 09:34:36;;;;;;;;;;;;;;;22.12;42.69;100353.97;5058789;28;794;-59
2021/05/19 09:37:24;;;;;;;;;;;;;;;22.11;42.74;100344.03;5058938;28;842;-59
2021/05/19 09:39:50;;;;;;;;;;;;;;;22.07;42.70;100345.81;5058764;28;1917;-59
2021/05/19 09:42:16;;;;;;;;;;;;;;;22.08;42.76;100355.75;5058218;28;946;-59
2021/05/19 09:44:44;;;;;;;;;;;;;;;22.26;42.42;100351.09;5058398;28;910;-53
2021/05/19 09:47:10;;;;;;;;;;;;;;;22.25;42.57;100357.75;5058785;28;810;-56
2021/05/19 09:49:35;;;;;;;;;;;;;;;22.24;42.29;100361.66;5059165;28;777;-56
2021/05/19 09:52:07;;;;;;;;;;;;;;;22.20;42.48;100361.50;5058738;28;834;-58
2021/05/19 09:54:34;;;;;;;;;;;;;;;22.18;42.54;100360.19;5059028;28;759;-59
2021/05/19 09:57:02;;;;;;;;;;;;;;;22.15;42.73;100363.59;5058099;28;982;-58
2021/05/19 09:59:28;;;;;;;;;;;;;;;22.06;42.75;100366.31;5058453;28;1918;-59
2021/05/19 10:01:54;;;;;;;;;;;;;;;22.21;42.44;100346.50;5058589;28;731;-59
2021/05/19 10:04:28;;;;;;;;;;;;;;;22.29;42.60;100352.41;5058303;28;799;-59
2021/05/19 10:06:53;;;;;;;;;;;;;;;22.27;42.21;100352.69;5040841;28;1198;-59
2021/05/19 10:09:19;;;;;;;;;;;;;;;22.36;42.07;100350.00;5056671;28;821;-58
2021/05/19 10:11:45;;;;;;;;;;;;;;;22.35;42.13;100345.56;5057793;28;1041;-58
2021/05/19 10:14:13;;;;;;;;;;;;;;;22.30;42.29;100340.16;5058258;28;815;-59
2021/05/19 10:16:40;;;;;;;;;;;;;;;22.47;41.79;100351.31;5058521;28;851;-58
2021/05/19 10:19:05;;;;;;;;;;;;;;;22.29;42.14;100347.66;5058027;28;1974;-59
2021/05/19 10:21:31;;;;;;;;;;;;;;;22.32;42.33;100343.44;5057210;28;800;-59
2021/05/19 10:26:30;;;;;;;;;;;;;;;22.27;42.47;100344.38;5057450;28;935;-58
2021/05/19 10:28:56;;;;;;;;;;;;;;;22.30;42.14;100335.44;5057915;28;863;-58
2021/05/19 10:31:25;;;;;;;;;;;;;;;22.36;42.25;100331.41;5058205;28;827;-58
2021/05/19 10:33:51;;;;;;;;;;;;;;;22.36;42.05;100330.59;5056266;28;799;-58
2021/05/19 10:36:40;;;;;;;;;;;;;;;22.42;41.98;100334.03;5058324;28;866;-59
2021/05/19 10:39:08;;;;;;;;;;;;;;;22.42;42.17;100334.84;5047159;28;1914;-59
2021/05/19 10:41:53;;;;;;;;;;;;;;;22.62;41.64;100335.34;5057039;28;982;-59
2021/05/19 10:44:18;;;;;;;;;;;;;;;22.38;42.12;100328.31;5056829;28;751;-60
2021/05/19 10:46:47;;;;;;;;;;;;;;;22.37;42.08;100340.53;5058188;28;756;-59
2021/05/19 10:49:13;;;;;;;;;;;;;;;21.83;43.67;100324.91;5057249;28;775;-59
2021/05/19 10:59:58;;;;;;;;;;;;;;;22.49;41.86;100301.91;5057796;28;1909;-60
2021/05/19 11:02:24;;;;;;;;;;;;;;;22.28;42.30;100312.78;5026559;28;1091;-60
2021/05/19 11:05:10;;;;;;;;;;;;;;;22.28;42.27;100312.78;5057246;28;763;-60
2021/05/19 11:07:36;;;;;;;;;;;;;;;21.88;42.56;100301.78;5057825;28;798;-55
2021/05/19 11:10:20;;;;;;;;;;;;;;;21.88;43.46;100301.78;5055575;28;881;-58
2021/05/19 11:12:53;;;;;;;;;;;;;;;22.32;42.21;100297.16;5039286;28;1183;-49
2021/05/19 11:15:39;;;;;;;;;;;;;;;22.38;42.29;100304.22;5057435;28;795;-53
2021/05/19 11:18:15;;;;;;;;;;;;;;;21.64;43.99;100299.44;5057172;28;803;-56
2021/05/19 11:20:40;;;;;;;;;;;;;;;21.41;44.36;100295.91;5056530;28;2034;-50
2021/05/19 11:23:09;;;;;;;;;;;;;;;21.18;44.98;100287.63;5057147;28;747;-52
2021/05/19 11:25:35;;;;;;;;;;;;;;;21.69;44.03;100291.00;5056987;28;745;-53
2021/05/19 11:28:00;;;;;;;;;;;;;;;22.07;42.91;100284.09;5056499;28;943;-49
2021/05/19 11:30:29;;;;;;;;;;;;;;;22.49;42.03;100274.22;5038902;28;1303;-54
2021/05/19 11:33:04;;;;;;;;;;;;;;;22.31;42.38;100278.09;5056466;28;855;-51
2021/05/19 11:35:30;;;;;;;;;;;;;;;22.05;43.14;100273.34;5056744;28;782;-53
2021/05/19 11:38:04;;;;;;;;;;;;;;;21.86;43.02;100266.13;5056623;28;1207;-56
2021/05/19 11:40:36;;;;;;;;;;;;;;;21.45;44.42;100269.22;5056302;28;1981;-53
2021/05/19 11:43:03;;;;;;;;;;;;;;;22.14;42.92;100276.94;5038148;28;991;-53
2021/05/19 11:45:28;;;;;;;;;;;;;;;22.48;42.05;100272.59;5025790;28;782;-52
2021/05/19 11:47:55;;;;;;;;;;;;;;;22.24;42.57;100263.91;5016313;28;732;-54
2021/05/19 11:50:24;;;;;;;;;;;;;;;22.12;42.76;100273.69;5015130;28;842;-51
2021/05/19 11:53:00;;;;;;;;;;;;;;;21.83;43.16;100268.72;5018309;28;931;-56
2021/05/19 11:55:27;;;;;;;;;;;;;;;21.83;43.70;100263.19;5020643;28;911;-54
2021/05/19 11:58:02;;;;;;;;;;;;;;;22.33;42.60;100259.19;5035696;28;1015;-56
2021/05/19 12:00:31;;;;;;;;;;;;;;;22.43;42.29;100253.38;5035973;28;1910;-52
2021/05/19 12:02:57;;;;;;;;;;;;;;;22.14;42.99;100262.28;5035815;28;807;-53
2021/05/19 12:05:23;;;;;;;;;;;;;;;22.01;43.00;100248.25;5035700;28;823;-55
2021/05/19 12:07:49;;;;;;;;;;;;;;;21.61;43.07;100245.53;5036313;28;759;-53
2021/05/19 12:10:15;;;;;;;;;;;;;;;22.01;43.37;100245.47;5035835;28;763;-56
2021/05/19 12:12:41;;;;;;;;;;;;;;;22.41;42.38;100233.47;5048754;28;978;-56
2021/05/19 12:15:07;;;;;;;;;;;;;;;22.29;42.69;100236.88;5054423;28;1225;-56
2021/05/19 12:17:32;;;;;;;;;;;;;;;22.22;42.84;100231.81;5056009;28;815;-56
2021/05/19 12:19:58;;;;;;;;;;;;;;;22.12;43.10;100231.31;5054417;28;1910;-51
2021/05/19 12:22:23;;;;;;;;;;;;;;;21.74;43.47;100227.22;5055839;28;724;-53
2021/05/19 12:24:49;;;;;;;;;;;;;;;21.99;43.29;100219.25;5055152;28;803;-57
2021/05/19 12:27:19;;;;;;;;;;;;;;;22.39;42.48;100213.59;5055278;28;939;-57
2021/05/19 12:29:47;;;;;;;;;;;;;;;22.44;42.31;100221.75;5056075;28;760;-56
2021/05/19 12:32:18;;;;;;;;;;;;;;;22.17;42.97;100220.09;5057446;28;796;-57
2021/05/19 12:34:45;;;;;;;;;;;;;;;22.02;43.26;100199.22;5059437;28;791;-54
2021/05/19 12:37:10;;;;;;;;;;;;;;;21.60;44.05;100229.25;5060198;28;780;-55
2021/05/19 12:39:37;;;;;;;;;;;;;;;22.04;43.23;100224.63;5059596;28;1914;-54
2021/05/19 12:42:20;;;;;;;;;;;;;;;22.39;42.48;100213.59;5059404;28;939;-55
2021/05/19 12:44:55;;;;;;;;;;;;;;;22.55;42.26;100206.41;5059904;28;767;-56
2021/05/19 12:47:23;;;;;;;;;;;;;;;22.46;42.20;100202.84;5059206;28;801;-58
2021/05/19 12:49:53;;;;;;;;;;;;;;;21.75;43.99;100203.91;5059598;28;802;-58
2021/05/19 12:52:18;;;;;;;;;;;;;;;21.46;44.07;100199.75;5059731;28;759;-53
2021/05/19 12:54:51;;;;;;;;;;;;;;;21.29;45.05;100199.69;5059128;28;522;-54
2021/05/19 12:57:19;;;;;;;;;;;;;;;21.48;44.62;100202.19;5058767;28;962;-57
2021/05/19 12:59:57;;;;;;;;;;;;;;;21.47;44.45;100203.34;5059602;28;1918;-57
2021/05/19 13:02:24;;;;;;;;;;;;;;;21.65;44.28;100198.69;5059129;28;799;-54
2021/05/19 13:04:50;;;;;;;;;;;;;;;21.51;44.45;100198.78;5032000;28;1261;-57